| time (UTC) | temp F | wind direction | speed MPH | gust MPH | rain 1hr in | rain 24hr in | rain mn in | humidity % | barometer mb |
| 20260507211845 | 52 | 150 | 8.0 | 0.0 | 0.00 | 0.00 | 0.00 | 100 | 1017.0 |
| 20260507210345 | 52 | 150 | 8.0 | 0.0 | 0.00 | 0.00 | 0.00 | 100 | 1017.0 |
| 20260507204844 | 52 | 150 | 8.0 | 0.0 | 0.00 | 0.00 | 0.00 | 100 | 1017.0 |
| 20260507203345 | 52 | 150 | 8.0 | 0.0 | 0.00 | 0.00 | 0.00 | 100 | 1017.0 |
| 20260507200345 | 52 | 140 | 8.0 | 0.0 | 0.00 | 0.00 | 0.00 | 94 | 1017.0 |
| 20260507194850 | 52 | 140 | 8.0 | 0.0 | 0.00 | 0.00 | 0.00 | 94 | 1017.0 |
| 20260507193344 | 52 | 140 | 8.0 | 0.0 | 0.00 | 0.00 | 0.00 | 94 | 1017.0 |
| 20260507190345 | 52 | 140 | 8.0 | 0.0 | 0.00 | 0.00 | 0.00 | 94 | 1017.0 |
| 20260507184846 | 52 | 140 | 8.0 | 0.0 | 0.00 | 0.00 | 0.00 | 94 | 1017.0 |
| 20260507183344 | 52 | 140 | 8.0 | 0.0 | 0.00 | 0.00 | 0.00 | 94 | 1017.0 |
| 20260507181845 | 52 | 140 | 8.0 | 0.0 | 0.00 | 0.00 | 0.00 | 94 | 1017.0 |
| 20260507180344 | 52 | 140 | 8.0 | 0.0 | 0.00 | 0.00 | 0.00 | 94 | 1017.0 |
| 20260507174844 | 54 | 140 | 10.0 | 0.0 | 0.00 | 0.00 | 0.00 | 94 | 1017.0 |
| 20260507173345 | 54 | 140 | 10.0 | 0.0 | 0.00 | 0.00 | 0.00 | 94 | 1017.0 |
| 20260507171845 | 54 | 140 | 10.0 | 0.0 | 0.00 | 0.00 | 0.00 | 88 | 1017.0 |
| 20260507170344 | 54 | 140 | 10.0 | 0.0 | 0.00 | 0.00 | 0.00 | 88 | 1017.0 |
| 20260507164845 | 55 | 140 | 13.0 | 0.0 | 0.00 | 0.00 | 0.00 | 82 | 1017.0 |
| 20260507163345 | 55 | 140 | 13.0 | 0.0 | 0.00 | 0.00 | 0.00 | 82 | 1017.0 |
| 20260507161844 | 57 | 150 | 14.0 | 0.0 | 0.00 | 0.00 | 0.00 | 77 | 1017.0 |
| 20260507160344 | 57 | 150 | 14.0 | 0.0 | 0.00 | 0.00 | 0.00 | 77 | 1017.0 |
| 20260507154845 | 59 | 150 | 15.0 | 0.0 | 0.00 | 0.00 | 0.00 | 72 | 1017.0 |
| 20260507153345 | 59 | 150 | 15.0 | 0.0 | 0.00 | 0.00 | 0.00 | 72 | 1017.0 |
| 20260507151844 | 61 | 150 | 16.0 | 0.0 | 0.00 | 0.00 | 0.00 | 68 | 1017.0 |
| 20260507150344 | 61 | 150 | 16.0 | 0.0 | 0.00 | 0.00 | 0.00 | 68 | 1017.0 |
| 20260507144844 | 61 | 150 | 17.0 | 0.0 | 0.00 | 0.00 | 0.00 | 68 | 1017.0 |
| 20260507143346 | 61 | 150 | 17.0 | 0.0 | 0.00 | 0.00 | 0.00 | 68 | 1017.0 |
| 20260507141845 | 63 | 150 | 16.0 | 0.0 | 0.00 | 0.00 | 0.00 | 68 | 1018.0 |
| 20260507140344 | 63 | 150 | 16.0 | 0.0 | 0.00 | 0.00 | 0.00 | 68 | 1018.0 |
| 20260507134845 | 63 | 160 | 17.0 | 0.0 | 0.00 | 0.00 | 0.00 | 68 | 1017.0 |
| 20260507133344 | 63 | 160 | 17.0 | 0.0 | 0.00 | 0.00 | 0.00 | 68 | 1017.0 |
| 20260507131841 | 63 | 160 | 17.0 | 0.0 | 0.00 | 0.00 | 0.00 | 68 | 1018.0 |
| 20260507130344 | 63 | 160 | 17.0 | 0.0 | 0.00 | 0.00 | 0.00 | 68 | 1018.0 |
| 20260507124841 | 64 | 160 | 16.0 | 0.0 | 0.00 | 0.00 | 0.00 | 64 | 1018.0 |
| 20260507123422 | 64 | 160 | 16.0 | 0.0 | 0.00 | 0.00 | 0.00 | 64 | 1018.0 |
| 20260507121844 | 64 | 150 | 16.0 | 0.0 | 0.00 | 0.00 | 0.00 | 64 | 1018.0 |
| 20260507120344 | 64 | 150 | 16.0 | 0.0 | 0.00 | 0.00 | 0.00 | 64 | 1018.0 |
| 20260507114844 | 66 | 140 | 15.0 | 0.0 | 0.00 | 0.00 | 0.00 | 60 | 1018.0 |
| 20260507113405 | 66 | 140 | 16.0 | 0.0 | 0.00 | 0.00 | 0.00 | 64 | 1018.0 |
| 20260507111844 | 66 | 140 | 16.0 | 0.0 | 0.00 | 0.00 | 0.00 | 64 | 1018.0 |
| 20260507110344 | 66 | 140 | 16.0 | 0.0 | 0.00 | 0.00 | 0.00 | 64 | 1018.0 |
| 20260507104844 | 64 | 130 | 15.0 | 0.0 | 0.00 | 0.00 | 0.00 | 68 | 1018.0 |
| 20260507103344 | 64 | 130 | 15.0 | 0.0 | 0.00 | 0.00 | 0.00 | 68 | 1018.0 |
| 20260507101844 | 64 | 130 | 16.0 | 0.0 | 0.00 | 0.00 | 0.00 | 60 | 1018.0 |
| 20260507100345 | 64 | 130 | 16.0 | 0.0 | 0.00 | 0.00 | 0.00 | 60 | 1018.0 |
| 20260507094845 | 66 | 150 | 14.0 | 0.0 | 0.00 | 0.00 | 0.00 | 56 | 1018.0 |
| 20260507093345 | 66 | 150 | 14.0 | 0.0 | 0.00 | 0.00 | 0.00 | 56 | 1018.0 |
| 20260507091846 | 64 | 150 | 15.0 | 0.0 | 0.00 | 0.00 | 0.00 | 56 | 1018.0 |
| 20260507090344 | 64 | 150 | 15.0 | 0.0 | 0.00 | 0.00 | 0.00 | 56 | 1018.0 |
| 20260507084844 | 64 | 140 | 13.0 | 0.0 | 0.00 | 0.00 | 0.00 | 60 | 1018.0 |
| 20260507083345 | 64 | 140 | 13.0 | 0.0 | 0.00 | 0.00 | 0.00 | 60 | 1018.0 |
| 20260507081844 | 63 | 160 | 10.0 | 0.0 | 0.00 | 0.00 | 0.00 | 68 | 1018.0 |
| 20260507080345 | 63 | 160 | 10.0 | 0.0 | 0.00 | 0.00 | 0.00 | 68 | 1018.0 |
| 20260507074845 | 61 | 170 | 11.0 | 0.0 | 0.00 | 0.00 | 0.00 | 72 | 1018.0 |
| 20260507073344 | 61 | 170 | 11.0 | 0.0 | 0.00 | 0.00 | 0.00 | 72 | 1018.0 |
| 20260507071845 | 61 | 160 | 10.0 | 0.0 | 0.00 | 0.00 | 0.00 | 72 | 1018.0 |
| 20260507070344 | 61 | 160 | 10.0 | 0.0 | 0.00 | 0.00 | 0.00 | 72 | 1018.0 |
| 20260507064844 | 59 | 150 | 9.0 | 0.0 | 0.00 | 0.00 | 0.00 | 72 | 1018.0 |
| 20260507063344 | 59 | 150 | 9.0 | 0.0 | 0.00 | 0.00 | 0.00 | 72 | 1018.0 |
| 20260507061854 | 57 | 160 | 8.0 | 0.0 | 0.00 | 0.00 | 0.00 | 82 | 1018.0 |
| 20260507060344 | 57 | 160 | 8.0 | 0.0 | 0.00 | 0.00 | 0.00 | 82 | 1018.0 |
| 20260507054844 | 54 | 150 | 7.0 | 0.0 | 0.00 | 0.00 | 0.00 | 88 | 1018.0 |
| 20260507053352 | 54 | 150 | 7.0 | 0.0 | 0.00 | 0.00 | 0.00 | 88 | 1018.0 |
| 20260507051845 | 52 | 150 | 6.0 | 0.0 | 0.00 | 0.00 | 0.00 | 100 | 1018.0 |
| 20260507050344 | 52 | 150 | 6.0 | 0.0 | 0.00 | 0.00 | 0.00 | 100 | 1018.0 |
| 20260507043344 | 50 | 140 | 5.0 | 0.0 | 0.00 | 0.00 | 0.00 | 100 | 1018.0 |
| 20260507041844 | 48 | 140 | 5.0 | 0.0 | 0.00 | 0.00 | 0.00 | 100 | 1018.0 |
| 20260507040344 | 48 | 140 | 5.0 | 0.0 | 0.00 | 0.00 | 0.00 | 100 | 1018.0 |
| 20260507034841 | 46 | 160 | 3.0 | 0.0 | 0.00 | 0.00 | 0.00 | 100 | 1017.0 |
| 20260507033344 | 46 | 160 | 3.0 | 0.0 | 0.00 | 0.00 | 0.00 | 100 | 1017.0 |
| 20260507030344 | 43 | 1.0 | 0.0 | 0.00 | 0.00 | 0.00 | 100 | 1017.0 | |
| 20260507024841 | 43 | 2.0 | 0.0 | 0.00 | 0.00 | 0.00 | 100 | 1017.0 | |
| 20260507023344 | 43 | 2.0 | 0.0 | 0.00 | 0.00 | 0.00 | 100 | 1017.0 | |
| 20260507021845 | 43 | 220 | 2.0 | 0.0 | 0.00 | 0.00 | 0.00 | 100 | 1017.0 |
| 20260507020344 | 43 | 220 | 2.0 | 0.0 | 0.00 | 0.00 | 0.00 | 100 | 1017.0 |
| 20260507014844 | 41 | 160 | 3.0 | 0.0 | 0.00 | 0.00 | 0.00 | 100 | 1017.0 |
| 20260507013344 | 41 | 160 | 3.0 | 0.0 | 0.00 | 0.00 | 0.00 | 100 | 1017.0 |
| 20260507011844 | 39 | 2.0 | 0.0 | 0.00 | 0.00 | 0.00 | 100 | 1017.0 | |
| 20260507010345 | 39 | 2.0 | 0.0 | 0.00 | 0.00 | 0.00 | 100 | 1017.0 | |
| 20260507004844 | 43 | 2.0 | 0.0 | 0.00 | 0.00 | 0.00 | 100 | 1017.0 | |
| 20260507003345 | 43 | 2.0 | 0.0 | 0.00 | 0.00 | 0.00 | 100 | 1017.0 | |
| 20260507001844 | 43 | 2.0 | 0.0 | 0.00 | 0.00 | 0.00 | 100 | 1017.0 | |
| 20260507000344 | 43 | 2.0 | 0.0 | 0.00 | 0.00 | 0.00 | 100 | 1017.0 | |
| 20260506234844 | 45 | 2.0 | 0.0 | 0.00 | 0.00 | 0.00 | 100 | 1017.0 | |
| 20260506233344 | 45 | 2.0 | 0.0 | 0.00 | 0.00 | 0.00 | 100 | 1017.0 | |
| 20260506230344 | 45 | 120 | 3.0 | 0.0 | 0.00 | 0.00 | 0.00 | 100 | 1017.0 |
| 20260506224841 | 43 | 110 | 1.0 | 0.0 | 0.00 | 0.00 | 0.00 | 100 | 1017.0 |
| 20260506223344 | 43 | 110 | 1.0 | 0.0 | 0.00 | 0.00 | 0.00 | 100 | 1017.0 |
| 20260506221844 | 46 | 200 | 3.0 | 0.0 | 0.00 | 0.00 | 0.00 | 100 | 1017.0 |
| 20260506220343 | 46 | 200 | 3.0 | 0.0 | 0.00 | 0.00 | 0.00 | 100 | 1017.0 |
| 20260506213344 | 46 | 220 | 3.0 | 0.0 | 0.00 | 0.00 | 0.00 | 100 | 1017.0 |